+ Antworten
Ergebnis 1 bis 4 von 4

Thema: Benötige Hilfe für Lute Shi (ROTISS) 80198A

  1. Top | #1
    Kann kein Chinesisch Avatar von krot32
    My Car
    vw
    Radio
    vw
    Dabei seit
    28.02.2011
    Beiträge
    3
    Bedankt
    1
    Erhielt 0x Danke in 0 Posts

    Frage Benötige Hilfe für Lute Shi (ROTISS) 80198A

    Habe hier ein NONAME RNS in der Bucht ersteigert und brauche eure Hilfe da ich ziemlich neu auf dem gebiet bin.
    Wenn ich das radio starte dann bootet es gleich ins win ce 6 und startet nicht die radio oberfläche

    hier erstmal paar bilder
    [Only members can see the link]
    [Only members can see the link]
    und vom inneren
    [Only members can see the link]
    [Only members can see the link]
    [Only members can see the link]
    Miniaturansichten angehängter Grafiken Miniaturansichten angehängter Grafiken Benötige Hilfe für Lute Shi (ROTISS) 80198A-9198484855_113048946c_c.jpg   Benötige Hilfe für Lute Shi (ROTISS) 80198A-9198764115_ab5ce9a2d6_z.jpg   Benötige Hilfe für Lute Shi (ROTISS) 80198A-img_20130713_114148.jpg   Benötige Hilfe für Lute Shi (ROTISS) 80198A-img_20130714_110144.jpg  

    Benötige Hilfe für Lute Shi (ROTISS) 80198A-img_20130714_110319.jpg   Benötige Hilfe für Lute Shi (ROTISS) 80198A-img_20130714_145751.jpg  
    Geändert von krot32 (14.07.2013 um 21:03 Uhr)

  2. # ADS
    Circuit advertisement
    Dabei seit
    Always
    Beiträge
    Many


     

  3. Top | #2
    Kann kein Chinesisch
    Themenersteller
    Avatar von krot32
    My Car
    vw
    Radio
    vw
    Dabei seit
    28.02.2011
    Beiträge
    3
    Bedankt
    1
    Erhielt 0x Danke in 0 Posts

    Standard

    habe mittlerweile herrausgefunden, dass es sich beim radio um ein " Lute Shi (ROTISS) 80198A " handelt
    hier noch das porttool

    PortTool execution path: \SDMMC\PortTool\PortTool.exe
    CPU: ARM rev.5
    Path to navi: [ ]
    USB: [Async/Flash card/CardReader]
    UUID in About: [yes/no]
    Internet: [yes/no]
    RAM: total: 109 Mb, avail: 93 Mb
    UUID: 16 byte: D0 C7 0C 60 3A DE 41 54 - 31 30 58 30 42 44 5F 30 (D0C70C603ADE41543130583042445F30)
    UUID check: 0
    DeviceID: 27 byte: 41 00 54 00 31 00 30 00 58 00 30 00 41 00 00 00 - 41 54 31 30 58 30 42 44 5F 30 00
    Screen: 800x480 16 bit
    OS Version: 6
    Battery percent: 0
    wininet.dll: yes
    OEM info: 'BSP Version: AVCE6EVB_Rel1.00.5.10' 70 byte: 42 00 53 00 50 00 20 00 56 00 65 00 72 00 73 00 69 00 6F 00 6E 00 3A 00 20 00 41 00 56 00 43 00 45 00 36 00 45 00 56 00 42 00 5F 00 52 00 65 00 6C 00 31 00 2E 00 30 00 30 00 2E 00 35 00 2E 00 31 00 30 00 00 00
    THUMB: yes
    MemAccess: Mapping - 220 ms malloc() - 215 ms Factor: 1 (ok)
    FlashCards
    name: ResidentFlash
    name: DSK1:
    Disk size: 14.85 Mb 15568896 bytes
    flashID: none
    Write/Read test: Ok
    Mapping: AVR Write: 2610 KB/s
    AVR Read: 327 KB/s
    Mapping time: 24 sec, 100 %

    name: FLASH
    name: DSK1:
    Disk size: 194.30 Mb 203743232 bytes
    flashID: none
    Write/Read test: Ok
    Mapping: AVR Write: 2536 KB/s
    AVR Read: 324 KB/s
    Mapping time: 25 sec, 100 %

    name: SDMMC
    name: DSK2:
    Disk size: 15185.50 Mb 3038248960 bytes
    flashID: 30 42 44 30 41 36 45 46 00 00 . 30 33
    flashID (for registration): 030BD0A6EF00
    Write/Read test: Ok
    Mapping: AVR Write: 960 KB/s
    AVR Read: 0 KB/s
    Mapping: Failed
    Mapping time: 37 sec, 0 %

    GPS:

    $GPGGA,000204.05,0000.0000,N,00000.0000,E,0,0,60.0 00,0.000,M,0.000,M,0,0*58
    $GPRMC,000204.05,V,0000.0000,N,00000.0000,E,0.000, 0.000,220899,0,W,N*2A
    $GPVTG,0.000,T,0.000,M,0.000,N,0.000,K,N*2C
    $GPGSD
    A,A,1,,,,,,,,,,,,,60.000,60.000,60.000*06
    $GPGGA,000205.05,0000.0000,N,00000.0000,E,0,0,60.0 00,0.000,M,0.000,M,0,0*59
    $GPRMC,000205.05,V,0000.0000,N,00000.0000,E,0.000, 0.000,220899,0,W,N*2B
    $GPVTG,D
    0.000,T,0.000,M,0.000,N,0.000,K,N*2C
    $GPGSA,A,1,,,,,,,,,,,,,60.000,60.000,60.000*06
    $GPGGA,000206.05,0000.0000,N,00000.0000,E,0,0,60.0 00,0.000,M,0.000,M,0,0*5A
    $GPRMC,000206.05,V,0000.0000,N,00000.D
    0000,E,0.000,0.000,220899,0,W,N*28
    $GPVTG,0.000,T,0.000,M,0.000,N,0.000,K,N*2C
    $GPGSA,A,1,,,,,,,,,,,,,60.000,60.000,60.000*06

    Port: COM1:
    Rate: 57600






    ÿ



    $GPGGA,000207.05,0000.0000,N,00000.0000,E,0,0,60.0 00,0.000,M,0.000,M,0,0*5B
    $GPRMC,000207.05,V,0000.0000,N,00000.0000,E,0.000, 0.000,220899,0,W,N*29
    $GPVTG,0.000,T,0.000,M,0.000,N,0.000,K,N*2C
    $GPGSD
    A,A,1,,,,,,,,,,,,,60.000,60.000,60.000*06
    $GPGGA,000218.05,0000.0000,N,00000.0000,E,0,0,60.0 00,0.000,M,0.000,M,0,0*55
    $GPRMC,000218.05,V,0000.0000,N,00000.0000,E,0.000, 0.000,220899,0,W,N*27
    $GPVTG,D
    0.000,T,0.000,M,0.000,N,0.000,K,N*2C
    $GPGSA,A,1,,,,,,,,,,,,,60.000,60.000,60.000*06
    $GPGGA,000219.05,0000.0000,N,00000.0000,E,0,0,60.0 00,0.000,M,0.000,M,0,0*54
    $GPRMC,000219.05,V,0000.0000,N,00000.D
    0000,E,0.000,0.000,220899,0,W,N*26
    $GPVTG,0.000,T,0.000,M,0.000,N,0.000,K,N*2C
    $GPGSA,A,1,,,,,,,,,,,,,60.000,60.000,60.000*06

    Port: COM5:
    Rate: 57600

    $GPGGA,000220.05,0000.0000,N,00000.0000,E,0,0,60.0 00,0.000,M,0.000,M,0,0*5E
    $GPRMC,000220.05,V,0000.0000,N,00000.0000,E,0.000, 0.000,220899,0,W,N*2C
    $GPVTG,0.000,T,0.000,M,0.000,N,0.000,K,N*2C
    $GPGSD
    A,A,1,,,,,,,,,,,,,60.000,60.000,60.000*06
    $GPGGA,000221.05,0000.0000,N,00000.0000,E,0,0,60.0 00,0.000,M,0.000,M,0,0*5F
    $GPRMC,000221.05,V,0000.0000,N,00000.0000,E,0.000, 0.000,220899,0,W,N*2D
    $GPVTG,D
    0.000,T,0.000,M,0.000,N,0.000,K,N*2C
    $GPGSA,A,1,,,,,,,,,,,,,60.000,60.000,60.000*06

    $GPGGA,000222.05,0000.0000,N,00000.0000,E,0,0,60.0 00,0.000,M,0.000,M,0,0*5C
    $GPRMC,000222.05,V,0000.0000,N,00000.0000,E,0.000, 0.000,220899,0,W,N*2E
    $GPVTG,0.000,T,0.000,M,0.000,N,0.000,K,N*2C
    $GPGSD
    Port: COM7:
    Rate: 57600

    String test: Ok
    System date/time: (3:30:39, 1970-1-1)
    ==================

    brauche nun die originale firmware und vielleicht kann mir jemand von euch ja dabei helfen


    hier noch ein Link mit den details und vielen Fotos
    [Only members can see the link]
    Geändert von krot32 (16.07.2013 um 21:39 Uhr)

  4. Top | #3
    Kann kein Chinesisch
    Themenersteller
    Avatar von krot32
    My Car
    vw
    Radio
    vw
    Dabei seit
    28.02.2011
    Beiträge
    3
    Bedankt
    1
    Erhielt 0x Danke in 0 Posts

    Standard

    Habe am Freitag endlich die passende Firmware in einem Chinesischen Forum gefunden, nachdem ich in Deutschen und Russischen Foren nicht weitergekommen bin.
    Nun geht alles und ich bin sehr zufrieden mit dem teil

  5. Top | #4
    Male
    Premium-Member
    Avatar von Micha87
    My Car
    Audi A4 8K
    Radio
    Audi MMI 3G Plus, Roadrover IAI7037V2 + TMC-Kit by Strados
    Dabei seit
    10.01.2010
    Ort
    Jena
    Beiträge
    673
    Bedankt
    57
    Erhielt 95x Danke in 73 Posts

    Standard


    Klasse!

    Wäre nett von dir wenn du die Firmeware in unseren Downloadbereich
    reinstellst.

    Noch viel Spass mit dem Teil

    Grüße
    Micha

+ Antworten

Ähnliche Themen

  1. Benötige Hilfe bei Redyon VW802
    Von Deluxe Styler im Forum Audiosources
    Antworten: 0
    Letzter Beitrag: 20.06.2013, 12:56
  2. Antworten: 0
    Letzter Beitrag: 12.03.2013, 19:41
  3. Benötige eure Hilfe - Witson W2-D9858Z
    Von baltic76 im Forum Navigon
    Antworten: 1
    Letzter Beitrag: 26.07.2011, 15:50
  4. Benötige Hilfe um DVB-T bzw. TV an meinem China-Radio ans laufen zu bekommen!
    Von Fox1986 im Forum EQUIPMENT - ZUBEHOER - EXTERN - Tools
    Antworten: 3
    Letzter Beitrag: 19.07.2010, 13:28

Berechtigungen

  • Neue Themen erstellen: Nein
  • Themen beantworten: Nein
  • Anhänge hochladen: Nein
  • Beiträge bearbeiten: Nein

sponsored - supported by


1 2 3 4 5 6 7 8 9 10 11 12 13 14 15 16 17 18 19 20 21 22 23 24 25 26 27 28 29 30 31 32 33 34 35 36 37 38 39 40 41 42 43 44 45 46 47 48 49 50 51 52 53 54 55 56 57 58 59 60 61 62 63 64